St Landry Parish Airport

Current Flights

Departures
Number Departure To Airline
Arrivals
Number Arrival From Airline
Info
Name: St Landry Parish Airport
Identifier:  OPL/KOPL
Local Time:  19. Jun 12:57
City
Flights per Day
0 flights
Distance: 538km (334mi)
Punctuality
50% (0 flights per day delayed)
Delay Average: 15 minutes
Current Weather
 25 C (Humidity: 78%)
  0kt (0km/h / 0mph) from 0°
  Broken clouds at 3,500 feet (1,066 meter)
  Overcast at 4,000 feet (1,219 meter)
  16km (10 mi.)
 METAR KOPL 191720Z AUTO 00000KT 10SM BKN035 OVC040 25/21 A2992 RMK AO2 T02520208

Current Delays

Departures
N/A
Arrivals
N/A

Destinations

Top Destinations
Airport Flights
per week
Seats
per week
  Destin (DSI) 0 - 0 0
  Austin (AUS) 0 - 0 0
  Atlanta (PDK) 0 - 0 0
  Midland (MDD) 0 - 0 0
  Houston (DWH) 0 - 0 0
  Tuscaloosa (TCL) 0 - 0 0
  Pensacola (PNS) 0 - 0 0

Airlines & Planes

Top Airlines
Airline Flights
per Day
Seats
per Day
  National Airlines 0 -
Jet Charter Inc ( Franklin Lakes Nj ) 0 -
  Flybe Nordic 0 -
Nordwind Airlines 0 -
Top Plane Types
Model Flights Seats
Cessna C340 0.1/day - 0
Piper PA28-181 0.0/day - 0
Cirrus SR22 0.0/day - 0